createdAt,value
2018-02-08T00:00:55.127Z,72.33
2018-02-08T00:03:24.213Z,72.66
2018-02-08T00:05:53.340Z,73.20
2018-02-08T00:08:22.472Z,72.94
2018-02-08T00:10:52.350Z,72.90
2018-02-08T00:13:22.213Z,73.08
2018-02-08T00:15:51.324Z,73.23
2018-02-08T00:18:20.478Z,73.08
2018-02-08T00:20:49.560Z,72.66
2018-02-08T00:23:18.648Z,73.03
2018-02-08T00:25:47.780Z,72.94
2018-02-08T00:28:18.566Z,72.36
2018-02-08T00:30:47.752Z,72.85
2018-02-08T00:33:16.911Z,73.12
2018-02-08T00:35:46.787Z,73.23
2018-02-08T00:38:15.884Z,73.40
2018-02-08T00:40:44.994Z,73.51
2018-02-08T00:43:14.858Z,73.48
2018-02-08T00:45:44.796Z,73.57
2018-02-08T00:48:13.897Z,73.70
2018-02-08T00:50:43.032Z,73.71
2018-02-08T00:53:12.927Z,73.81
2018-02-08T00:55:42.075Z,73.79
2018-02-08T00:58:11.157Z,73.95
2018-02-08T01:00:40.352Z,74.09
2018-02-08T01:03:10.225Z,74.40
2018-02-08T01:05:39.427Z,74.35
2018-02-08T01:08:08.519Z,74.56
2018-02-08T01:10:37.666Z,74.00
2018-02-08T01:13:06.765Z,73.77
2018-02-08T01:15:35.902Z,73.93
2018-02-08T01:18:05.297Z,74.55
2018-02-08T01:20:34.439Z,74.78
2018-02-08T01:23:04.301Z,75.16
2018-02-08T01:25:34.203Z,75.22
2018-02-08T01:28:03.321Z,75.37
2018-02-08T01:30:33.154Z,75.42
2018-02-08T01:33:02.286Z,75.47
2018-02-08T01:35:31.411Z,75.55
2018-02-08T01:38:00.860Z,75.80
2018-02-08T01:40:30.730Z,75.85
2018-02-08T01:42:59.867Z,76.06
2018-02-08T01:45:28.982Z,76.27
2018-02-08T01:47:58.887Z,76.37
2018-02-08T01:50:28.807Z,76.22
2018-02-08T01:52:57.900Z,76.49
2018-02-08T01:55:27.799Z,76.24
2018-02-08T01:57:56.922Z,76.28
2018-02-08T02:00:26.757Z,76.51
2018-02-08T02:02:55.859Z,76.75
2018-02-08T02:05:24.982Z,76.66
2018-02-08T02:07:54.083Z,76.68
2018-02-08T02:10:23.229Z,76.81
2018-02-08T02:12:52.311Z,76.70
2018-02-08T02:15:21.445Z,76.68
2018-02-08T02:17:51.298Z,76.85
2018-02-08T02:20:21.183Z,76.89
2018-02-08T02:22:51.067Z,76.90
2018-02-08T02:25:20.176Z,76.43
2018-02-08T02:27:49.372Z,76.45
2018-02-08T02:30:18.605Z,76.48
2018-02-08T02:32:48.462Z,76.34
2018-02-08T02:35:17.574Z,76.31
2018-02-08T02:37:46.714Z,76.42
2018-02-08T02:40:15.830Z,76.46
2018-02-08T02:42:45.732Z,75.90
2018-02-08T02:45:14.850Z,75.48
2018-02-08T02:47:43.954Z,75.25
2018-02-08T02:50:13.069Z,75.13
2018-02-08T02:52:42.161Z,75.77
2018-02-08T02:55:11.286Z,76.12
2018-02-08T02:57:40.532Z,76.29
2018-02-08T03:00:09.645Z,76.17
2018-02-08T03:02:39.177Z,75.78
2018-02-08T03:05:08.310Z,76.02
2018-02-08T03:07:37.408Z,76.18
2018-02-08T03:10:06.525Z,75.94
2018-02-08T03:12:36.382Z,75.96
2018-02-08T03:15:05.506Z,76.05
2018-02-08T03:17:34.640Z,75.88
2018-02-08T03:20:03.777Z,75.75
2018-02-08T03:22:32.907Z,76.11
2018-02-08T03:25:02.001Z,76.10
2018-02-08T03:27:31.899Z,76.13
2018-02-08T03:30:02.530Z,76.22
2018-02-08T03:32:32.200Z,76.43
2018-02-08T03:35:01.325Z,76.23
2018-02-08T03:37:30.449Z,76.47
2018-02-08T03:39:59.570Z,76.43
2018-02-08T03:42:29.441Z,76.51
2018-02-08T03:44:58.537Z,76.44
2018-02-08T03:47:27.646Z,76.33
2018-02-08T03:49:56.773Z,76.41
2018-02-08T03:52:26.702Z,76.46
2018-02-08T03:54:55.814Z,76.71
2018-02-08T03:57:25.838Z,76.99
2018-02-08T03:59:54.973Z,77.03
2018-02-08T04:02:24.061Z,77.10
2018-02-08T04:04:53.186Z,77.19
2018-02-08T04:07:22.290Z,77.21
2018-02-08T04:09:51.409Z,77.30
2018-02-08T04:12:20.518Z,77.36
2018-02-08T04:14:49.640Z,77.33
2018-02-08T04:17:18.763Z,77.11
2018-02-08T04:19:48.660Z,76.99
2018-02-08T04:22:18.556Z,76.96
2018-02-08T04:24:47.649Z,76.85
2018-02-08T04:27:17.674Z,76.91
2018-02-08T04:29:46.770Z,76.83
2018-02-08T04:32:16.962Z,76.52
2018-02-08T04:34:46.072Z,76.72
2018-02-08T04:37:15.244Z,76.79
2018-02-08T04:40:02.030Z,76.70
2018-02-08T04:42:49.633Z,77.06
2018-02-08T04:45:36.597Z,77.27
2018-02-08T04:48:08.451Z,77.46
2018-02-08T04:50:37.575Z,77.25
2018-02-08T04:53:07.480Z,77.63
2018-02-08T04:55:37.101Z,77.75
2018-02-08T04:58:06.226Z,77.50
2018-02-08T05:00:35.354Z,76.97
2018-02-08T05:03:04.464Z,76.70
2018-02-08T05:05:33.594Z,76.78
2018-02-08T05:08:02.706Z,76.64
2018-02-08T05:10:31.833Z,77.09
2018-02-08T05:13:01.688Z,76.71
2018-02-08T05:15:30.806Z,76.94
2018-02-08T05:17:59.929Z,77.05
2018-02-08T05:20:29.037Z,76.89
2018-02-08T05:22:58.918Z,76.74
2018-02-08T05:25:28.044Z,76.97
2018-02-08T05:27:57.935Z,77.12
2018-02-08T05:30:27.024Z,77.24
2018-02-08T05:32:56.193Z,77.54
2018-02-08T05:35:25.247Z,77.70
2018-02-08T05:37:54.376Z,78.00
2018-02-08T05:40:23.507Z,77.76
2018-02-08T05:42:52.645Z,77.72
2018-02-08T05:45:22.381Z,77.88
2018-02-08T05:47:51.505Z,77.86
2018-02-08T05:50:20.684Z,77.71
2018-02-08T05:52:49.849Z,78.02
2018-02-08T05:55:20.111Z,78.04
2018-02-08T05:57:49.989Z,78.12
2018-02-08T06:00:19.164Z,78.37
2018-02-08T06:02:48.280Z,78.39
2018-02-08T06:05:17.376Z,78.43
2018-02-08T06:07:46.482Z,78.60
2018-02-08T06:10:15.601Z,78.88
2018-02-08T06:12:44.725Z,78.72
2018-02-08T06:15:14.146Z,78.61
2018-02-08T06:17:44.122Z,78.64
2018-02-08T06:20:13.983Z,78.64
2018-02-08T06:22:43.123Z,78.72
2018-02-08T06:25:12.256Z,78.63
2018-02-08T06:27:41.646Z,78.67
2018-02-08T06:30:11.481Z,78.71
2018-02-08T06:32:40.604Z,78.58
2018-02-08T06:35:10.470Z,78.83
2018-02-08T06:37:39.621Z,78.92
2018-02-08T06:40:08.746Z,78.92
2018-02-08T06:42:37.877Z,79.06
2018-02-08T06:45:07.002Z,79.17
2018-02-08T06:47:36.864Z,79.23
2018-02-08T06:50:05.988Z,78.99
2018-02-08T06:52:35.107Z,78.61
2018-02-08T06:55:05.015Z,78.66
2018-02-08T06:57:34.134Z,79.09
2018-02-08T07:00:03.267Z,78.93
2018-02-08T07:02:32.377Z,78.79
2018-02-08T07:05:01.536Z,78.92
2018-02-08T07:07:30.650Z,79.35
2018-02-08T07:09:59.761Z,79.05
2018-02-08T07:12:29.654Z,78.81
2018-02-08T07:14:59.537Z,79.08
2018-02-08T07:17:29.473Z,78.62
2018-02-08T07:19:58.584Z,79.10
2018-02-08T07:22:28.473Z,78.84
2018-02-08T07:24:57.639Z,79.14
2018-02-08T07:27:26.738Z,78.82
2018-02-08T07:29:55.843Z,78.91
2018-02-08T07:32:25.731Z,78.93
2018-02-08T07:34:54.857Z,79.15
2018-02-08T07:37:24.849Z,79.13
2018-02-08T07:39:53.976Z,79.14
2018-02-08T07:42:24.702Z,79.25
2018-02-08T07:44:54.955Z,79.44
2018-02-08T07:47:25.709Z,79.31
2018-02-08T07:49:54.874Z,79.46
2018-02-08T07:52:24.763Z,79.31
2018-02-08T07:54:53.921Z,79.50
2018-02-08T07:57:23.038Z,79.33
2018-02-08T07:59:52.174Z,79.21
2018-02-08T08:02:21.282Z,78.94
2018-02-08T08:04:50.400Z,79.21
2018-02-08T08:07:19.514Z,79.53
2018-02-08T08:09:48.677Z,79.33
2018-02-08T08:12:18.527Z,79.29
2018-02-08T08:14:47.778Z,79.09
2018-02-08T08:17:16.905Z,78.97
2018-02-08T08:19:47.137Z,79.26
2018-02-08T08:22:16.230Z,79.28
2018-02-08T08:24:45.345Z,79.23
2018-02-08T08:27:14.456Z,79.27
2018-02-08T08:29:43.619Z,79.28
2018-02-08T08:32:12.747Z,78.95
2018-02-08T08:34:41.921Z,79.06
2018-02-08T08:37:11.017Z,79.26
2018-02-08T08:39:40.133Z,79.25
2018-02-08T08:42:09.418Z,79.22
2018-02-08T08:44:38.539Z,79.46
2018-02-08T08:47:07.946Z,79.20
2018-02-08T08:49:37.093Z,78.89
2018-02-08T08:52:07.215Z,78.91
2018-02-08T08:54:36.323Z,78.81
2018-02-08T08:57:06.222Z,78.72
2018-02-08T08:59:35.949Z,78.06
2018-02-08T09:02:05.081Z,77.66
2018-02-08T09:04:34.246Z,76.72
2018-02-08T09:07:03.369Z,75.67
2018-02-08T09:09:32.529Z,74.89
2018-02-08T09:12:01.618Z,73.97
2018-02-08T09:14:30.722Z,73.11
2018-02-08T09:17:00.693Z,72.41
2018-02-08T09:19:29.782Z,71.91
2018-02-08T09:21:59.675Z,72.34
2018-02-08T09:24:28.784Z,72.74
2018-02-08T09:26:57.903Z,72.31
2018-02-08T09:29:28.893Z,72.03
2018-02-08T09:31:58.010Z,71.77
2018-02-08T09:34:27.136Z,71.72
2018-02-08T09:36:57.042Z,71.32
2018-02-08T09:39:26.153Z,71.24
2018-02-08T09:41:56.037Z,71.16
2018-02-08T09:44:25.906Z,70.69
2018-02-08T09:46:55.056Z,70.27
2018-02-08T09:49:24.894Z,70.08
2018-02-08T09:51:54.010Z,70.17
2018-02-08T09:54:23.142Z,69.55
2018-02-08T09:56:53.189Z,69.39
2018-02-08T09:59:22.310Z,69.03
2018-02-08T10:01:51.422Z,69.00
2018-02-08T10:04:20.545Z,69.35
2018-02-08T10:16:53.472Z,68.70
2018-02-08T10:25:29.418Z,68.15
2018-02-08T10:28:03.137Z,67.88
2018-02-08T10:30:33.027Z,67.63
2018-02-08T10:33:02.122Z,67.80
2018-02-08T10:35:31.286Z,67.70
2018-02-08T10:38:00.402Z,68.02
2018-02-08T10:40:29.610Z,68.29
2018-02-08T10:42:58.733Z,67.83
2018-02-08T10:45:29.257Z,67.62
2018-02-08T10:47:58.720Z,68.14
2018-02-08T10:50:27.833Z,68.24
2018-02-08T10:52:58.075Z,68.10
2018-02-08T10:55:29.011Z,68.24
2018-02-08T10:57:58.940Z,68.00
2018-02-08T11:00:28.134Z,67.64
2018-02-08T11:02:58.458Z,67.22
2018-02-08T11:05:27.560Z,67.98
2018-02-08T11:07:57.464Z,67.34
2018-02-08T11:10:26.566Z,67.72
2018-02-08T11:12:56.450Z,68.19
2018-02-08T11:15:25.560Z,67.23
2018-02-08T11:17:54.691Z,67.21
2018-02-08T11:20:24.547Z,67.61
2018-02-08T11:22:53.646Z,66.95
2018-02-08T11:25:22.770Z,66.73
2018-02-08T11:27:51.861Z,67.39
2018-02-08T11:30:21.681Z,67.50
2018-02-08T11:32:51.564Z,66.43
2018-02-08T11:35:23.084Z,65.88
2018-02-08T11:37:52.213Z,65.80
2018-02-08T11:40:21.943Z,66.02
2018-02-08T11:42:51.047Z,65.66
2018-02-08T11:45:20.142Z,65.27
2018-02-08T11:47:50.032Z,66.63
2018-02-08T11:50:19.193Z,64.87
2018-02-08T11:52:48.405Z,66.40
2018-02-08T11:55:18.231Z,65.92
2018-02-08T11:57:47.341Z,65.17
2018-02-08T12:00:16.434Z,64.96
2018-02-08T12:02:45.574Z,64.59
2018-02-08T12:05:14.691Z,64.72
2018-02-08T12:07:43.802Z,63.79
2018-02-08T12:10:12.907Z,62.54
2018-02-08T12:12:42.849Z,63.62
2018-02-08T12:15:11.937Z,63.03
2018-02-08T12:17:41.094Z,62.86
2018-02-08T12:20:10.190Z,62.79
2018-02-08T12:22:39.301Z,63.30
2018-02-08T12:25:08.431Z,62.94
2018-02-08T12:27:37.731Z,63.08
2018-02-08T12:30:06.828Z,62.93
2018-02-08T12:32:36.338Z,62.09
2018-02-08T12:35:06.371Z,62.01
2018-02-08T12:37:35.664Z,62.79
2018-02-08T12:40:04.782Z,61.81
2018-02-08T12:42:33.889Z,61.80
2018-02-08T12:45:02.993Z,62.39
2018-02-08T12:47:32.133Z,61.07
2018-02-08T12:50:01.253Z,60.76
2018-02-08T12:52:31.138Z,60.45
2018-02-08T12:55:00.261Z,60.66
2018-02-08T12:57:30.147Z,60.11
2018-02-08T12:59:59.248Z,60.62
2018-02-08T13:02:28.365Z,61.32
2018-02-08T13:04:58.250Z,61.40
2018-02-08T13:07:27.364Z,61.10
2018-02-08T13:09:56.494Z,61.32
2018-02-08T13:12:25.591Z,60.78
2018-02-08T13:14:54.764Z,60.96
2018-02-08T13:17:23.880Z,60.20
2018-02-08T13:19:53.758Z,60.29
2018-02-08T13:22:22.894Z,60.70
2018-02-08T13:24:52.036Z,60.50
2018-02-08T13:27:21.149Z,60.07
2018-02-08T13:29:50.273Z,60.52
2018-02-08T13:32:20.714Z,60.12
2018-02-08T13:34:49.855Z,59.48
2018-02-08T13:37:20.418Z,59.33
2018-02-08T13:42:56.852Z,59.11
2018-02-08T13:45:25.980Z,58.95
2018-02-08T13:48:09.845Z,58.94
2018-02-08T13:50:59.313Z,57.66
2018-02-08T13:53:33.801Z,56.98
2018-02-08T13:56:10.372Z,57.42
2018-02-08T13:58:56.085Z,57.60
2018-02-08T14:01:35.144Z,56.26
2018-02-08T14:04:05.005Z,56.36
2018-02-08T14:06:34.355Z,56.53
2018-02-08T14:09:03.477Z,55.61
2018-02-08T14:11:32.574Z,54.34
2018-02-08T14:14:01.710Z,53.71
2018-02-08T14:16:30.794Z,53.63
2018-02-08T14:19:01.601Z,54.04
2018-02-08T14:21:30.697Z,54.05
2018-02-08T14:23:59.830Z,53.74
2018-02-08T14:26:29.952Z,53.07
2018-02-08T14:28:59.099Z,53.83
2018-02-08T14:31:28.972Z,54.27
2018-02-08T14:33:58.092Z,53.29
2018-02-08T14:36:28.723Z,53.46
2018-02-08T14:38:59.578Z,53.39
2018-02-08T14:41:28.727Z,52.63
2018-02-08T14:43:57.843Z,53.63
2018-02-08T14:46:28.344Z,52.94
2018-02-08T14:48:57.441Z,52.63
2018-02-08T14:51:26.562Z,53.23
2018-02-08T14:53:56.460Z,49.70
2018-02-08T14:56:25.576Z,45.03
2018-02-08T14:58:55.427Z,42.84
2018-02-08T15:01:24.533Z,42.13
2018-02-08T15:03:54.416Z,42.72
2018-02-08T15:06:25.120Z,41.38
2018-02-08T15:08:54.263Z,41.00
2018-02-08T15:11:23.364Z,41.11
2018-02-08T15:13:52.501Z,41.76
2018-02-08T15:16:21.627Z,43.61
2018-02-08T15:18:51.539Z,45.55
2018-02-08T15:21:21.402Z,49.18
2018-02-08T15:23:50.518Z,49.89
2018-02-08T15:26:19.633Z,51.44
2018-02-08T15:28:48.746Z,53.04
2018-02-08T15:31:17.842Z,53.85
2018-02-08T15:33:46.967Z,54.81
2018-02-08T15:36:16.089Z,54.61
2018-02-08T15:38:45.544Z,54.52
2018-02-08T15:41:14.677Z,54.74
2018-02-08T15:43:43.790Z,55.08
2018-02-08T15:46:12.916Z,55.78
2018-02-08T15:48:42.079Z,56.22
2018-02-08T15:51:11.932Z,56.73
2018-02-08T15:53:42.027Z,57.26
2018-02-08T15:56:11.158Z,58.27
2018-02-08T15:58:41.033Z,59.38
2018-02-08T16:01:10.200Z,59.95
2018-02-08T16:03:39.308Z,59.55
2018-02-08T16:06:08.426Z,59.82
2018-02-08T16:08:37.542Z,60.63
2018-02-08T16:11:07.427Z,60.99
2018-02-08T16:13:36.545Z,61.50
2018-02-08T16:16:05.689Z,61.95
2018-02-08T16:18:34.802Z,62.45
2018-02-08T16:21:04.044Z,62.71
2018-02-08T16:23:33.953Z,63.12
2018-02-08T16:26:03.054Z,63.42
2018-02-08T16:28:32.961Z,63.60
2018-02-08T16:31:02.067Z,64.30
2018-02-08T16:33:31.958Z,64.69
2018-02-08T16:36:01.123Z,64.91
2018-02-08T16:38:30.239Z,65.11
2018-02-08T16:40:59.360Z,65.01
2018-02-08T16:43:28.471Z,65.35
2018-02-08T16:45:57.602Z,65.39
2018-02-08T16:48:26.730Z,65.41
2018-02-08T16:50:55.844Z,65.76
2018-02-08T16:53:24.979Z,65.99
2018-02-08T16:55:54.062Z,66.42
2018-02-08T16:58:23.199Z,66.80
2018-02-08T17:00:52.282Z,66.74
2018-02-08T17:03:21.439Z,67.08
2018-02-08T17:05:50.583Z,67.52
2018-02-08T17:08:19.717Z,67.65
2018-02-08T17:10:48.855Z,68.40
2018-02-08T17:13:17.987Z,68.06
2018-02-08T17:15:47.128Z,68.46
2018-02-08T17:18:16.195Z,68.43
2018-02-08T17:20:45.321Z,68.66
2018-02-08T17:23:15.209Z,68.91
2018-02-08T17:25:44.349Z,68.75
2018-02-08T17:28:13.447Z,69.02
2018-02-08T17:30:43.136Z,69.13
2018-02-08T17:33:13.012Z,68.86
2018-02-08T17:35:43.106Z,69.33
2018-02-08T17:38:13.078Z,69.64
2018-02-08T17:40:43.714Z,69.65
2018-02-08T17:43:13.584Z,69.98
2018-02-08T17:45:42.727Z,70.16
2018-02-08T17:48:12.655Z,70.41
2018-02-08T17:50:42.539Z,70.67
2018-02-08T17:53:12.377Z,70.78
2018-02-08T17:55:42.497Z,70.85
2018-02-08T17:58:12.380Z,70.92
2018-02-08T18:00:41.474Z,71.22
2018-02-08T18:03:11.473Z,71.73
2018-02-08T18:05:40.585Z,72.27
2018-02-08T18:08:09.707Z,72.61
2018-02-08T18:10:39.570Z,72.63
2018-02-08T18:13:08.753Z,72.32
2018-02-08T18:15:37.851Z,72.24
2018-02-08T18:18:07.804Z,72.60
2018-02-08T18:20:36.887Z,72.70
2018-02-08T18:23:06.048Z,72.76
2018-02-08T18:25:35.300Z,72.34
2018-02-08T18:28:04.416Z,72.38
2018-02-08T18:30:34.287Z,72.27
2018-02-08T18:33:03.425Z,72.40
2018-02-08T18:35:33.319Z,72.20
2018-02-08T18:38:02.479Z,72.28
2018-02-08T18:40:31.667Z,72.45
2018-02-08T18:43:00.732Z,72.69
2018-02-08T18:45:31.068Z,72.84
2018-02-08T18:48:00.276Z,73.29
2018-02-08T18:50:29.415Z,73.26
2018-02-08T18:52:58.547Z,72.98
2018-02-08T18:55:28.416Z,73.18
2018-02-08T18:57:57.544Z,73.45
2018-02-08T19:00:26.666Z,73.23
2018-02-08T19:02:56.545Z,73.38
2018-02-08T19:05:25.660Z,73.66
2018-02-08T19:07:54.802Z,73.74
2018-02-08T19:10:24.712Z,74.04
2018-02-08T19:12:53.827Z,74.16
2018-02-08T19:15:22.950Z,74.24
2018-02-08T19:17:52.071Z,74.51
2018-02-08T19:20:22.485Z,74.59
2018-02-08T19:22:51.637Z,74.24
2018-02-08T19:25:20.829Z,73.15
2018-02-08T19:27:49.943Z,73.67
2018-02-08T19:30:19.187Z,74.01
2018-02-08T19:32:49.100Z,74.38
2018-02-08T19:35:18.954Z,74.55
2018-02-08T19:37:48.078Z,74.21
2018-02-08T19:40:17.213Z,74.32
2018-02-08T19:42:47.087Z,74.61
2018-02-08T19:45:16.192Z,74.58
2018-02-08T19:47:45.345Z,74.17
2018-02-08T19:50:14.461Z,73.79
2018-02-08T19:52:43.586Z,73.70
2018-02-08T19:55:12.716Z,73.73
2018-02-08T19:57:42.596Z,73.89
2018-02-08T20:00:11.726Z,73.69
2018-02-08T20:02:41.596Z,74.09
2018-02-08T20:05:10.711Z,74.06
2018-02-08T20:07:39.858Z,74.34
2018-02-08T20:10:08.988Z,74.55
2018-02-08T20:12:38.131Z,74.48
2018-02-08T20:15:24.785Z,73.84
2018-02-08T20:17:53.919Z,73.61
2018-02-08T20:20:23.825Z,73.56
2018-02-08T20:22:53.711Z,73.99
2018-02-08T20:25:28.261Z,74.24
2018-02-08T20:27:57.364Z,74.01
2018-02-08T20:30:27.269Z,73.93
2018-02-08T20:32:56.375Z,73.79
2018-02-08T20:35:26.995Z,73.14
2018-02-08T20:37:56.127Z,72.57
2018-02-08T20:40:25.664Z,72.25
2018-02-08T20:46:02.653Z,72.77
2018-02-08T20:48:31.739Z,72.69
2018-02-08T20:51:00.834Z,72.58
2018-02-08T20:53:29.980Z,72.56
2018-02-08T20:55:59.277Z,72.63
2018-02-08T20:58:28.419Z,72.83
2018-02-08T21:00:57.517Z,73.19
2018-02-08T21:03:26.662Z,73.41
2018-02-08T21:05:55.767Z,73.58
2018-02-08T21:08:24.873Z,73.43
2018-02-08T21:10:54.001Z,73.78
2018-02-08T21:13:23.383Z,74.35
2018-02-08T21:15:53.372Z,74.61
2018-02-08T21:18:22.502Z,74.77
2018-02-08T21:20:51.640Z,74.52
2018-02-08T21:23:20.792Z,74.72
2018-02-08T21:25:49.900Z,74.61
2018-02-08T21:28:19.059Z,74.81
2018-02-08T21:30:48.148Z,74.97
2018-02-08T21:33:17.255Z,75.05
2018-02-08T21:35:46.396Z,74.71
2018-02-08T21:38:15.485Z,74.38
2018-02-08T21:40:44.634Z,74.23
2018-02-08T21:43:13.776Z,74.02
2018-02-08T21:45:43.660Z,74.08
2018-02-08T21:48:13.696Z,74.17
2018-02-08T21:50:43.578Z,74.32
2018-02-08T21:53:12.701Z,74.46
2018-02-08T21:55:42.781Z,74.58
2018-02-08T21:58:11.929Z,74.48
2018-02-08T22:00:43.197Z,74.92
2018-02-08T22:03:12.339Z,74.56
2018-02-08T22:05:41.473Z,74.49
2018-02-08T22:08:11.423Z,73.15
2018-02-08T22:10:40.520Z,73.06
2018-02-08T22:13:09.639Z,73.66
2018-02-08T22:15:38.747Z,73.91
2018-02-08T22:18:07.882Z,74.11
2018-02-08T22:20:36.983Z,74.27
2018-02-08T22:23:06.095Z,74.24
2018-02-08T22:25:36.114Z,74.46
2018-02-08T22:28:05.279Z,74.64
2018-02-08T22:30:35.810Z,74.58
2018-02-08T22:33:04.914Z,74.57
2018-02-08T22:35:34.022Z,74.67
2018-02-08T22:38:03.141Z,74.83
2018-02-08T22:40:32.339Z,75.11
2018-02-08T22:43:01.459Z,75.37
2018-02-08T22:45:30.584Z,75.38
2018-02-08T22:48:00.543Z,75.05
2018-02-08T22:50:29.668Z,74.73
2018-02-08T22:52:58.792Z,74.93
2018-02-08T22:55:28.694Z,75.27
2018-02-08T22:57:58.557Z,75.30
2018-02-08T23:00:27.819Z,75.41
2018-02-08T23:02:57.685Z,75.35
2018-02-08T23:05:26.798Z,75.54
2018-02-08T23:07:55.924Z,75.66
2018-02-08T23:10:25.805Z,75.12
2018-02-08T23:12:54.920Z,74.46
2018-02-08T23:15:24.560Z,74.21
2018-02-08T23:17:54.300Z,74.02
2018-02-08T23:20:23.395Z,73.93
2018-02-08T23:22:52.519Z,73.88
2018-02-08T23:25:21.618Z,73.46
2018-02-08T23:27:51.519Z,73.05
2018-02-08T23:30:20.601Z,73.39
2018-02-08T23:32:50.661Z,73.35
2018-02-08T23:35:19.749Z,72.69
2018-02-08T23:37:49.637Z,72.19
2018-02-08T23:40:18.809Z,72.48
2018-02-08T23:42:47.922Z,72.96
2018-02-08T23:45:17.036Z,72.64
2018-02-08T23:47:46.699Z,73.82
2018-02-08T23:50:15.786Z,74.00
2018-02-08T23:52:44.898Z,74.27
2018-02-08T23:55:14.011Z,74.47
2018-02-08T23:57:43.131Z,74.72
